CYYCCYVC

Guest
Details From CYYC - Calgary Intl
To CYVC - La Ronge (barber Field)
Flight Number -
Tags Generated
Created
Modified
Stats Distance 399 nm / 738 km
Max Altitude 0 ft / 0 m
Waypoints 3
Social Downloads 0
Likes 0
Share VATSIM

Download

Looking for another format? Having issues loading an existing format? Contact us
Advertisement - Login to hide

Notes

Generated

Route

CYYC VC CYVC

ID Type Via Altitude Latitude Longitude Leg Dist Tot Dist Heading (true) Name
O CYYC APT - 0 ft / 0 m 51.10417˚ -114.03028˚ - 0 nm - -
VC NDB - 0 ft / 0 m 55.08611˚ -105.31833˚ 394 nm 394 nm 49° / 56° LA RONGE NDB
O CYVC APT - 0 ft / 0 m 55.15110˚ -105.27332˚ 4 nm 398 nm 22° / 22° La Ronge (Barber Field)

Altitude Profile

Advertisement - Login to hide

Weather


0- 5 10 15 20 25 30 35+ Temperature / ° C

Clouds and Precipitation
Forecast for 2018-05-27 18:00 UTC. Updated 4 hours ago

Ground ~20,000 ft ~40,000 ft Winds

CYYC

Details ICAO CYYC (YYC)
Name CALGARY INTL
Region Canada
Timezone America/Edmonton (UTC-6.0)
Stats Elevation 3,557 ft / 1,084 m (AMSL)
Location 51.113197° -114.020044°
Runways 3
Magnetic Variation 14.025° E

METAR

CYYC 272100Z 16007G17KT 110V190 30SM FEW032 BKN230 23/02 A3004 RMK CU1CI6 CU TR SLP171 DENSITY ALT 5200FT

Decode

TAF

TAF TAF CYYC 272038Z 2721/2818 14010KT P6SM FEW030 SCT220 FM280700 23006KT P6SM SKC FM281500 21008KT P6SM FEW100 RMK NXT FCST BY 280000Z

Decode

Departure Runways

ID Width Length Bearing (true) Bearing (mag) Surface Threshold Offset Overrun Length
07 144 ft / 44 m 6,561 ft / 2,000 m 90.76° 76.74° Asphalt 0 ft / 0 m 0 ft / 0 m
10 210 ft / 64 m 8,433 ft / 2,570 m 119.00° 104.98° Asphalt 0 ft / 0 m 0 ft / 0 m
16 200 ft / 61 m 12,703 ft / 3,872 m 179.00° 164.98° Asphalt 0 ft / 0 m 0 ft / 0 m
25 144 ft / 44 m 6,561 ft / 2,000 m 270.78° 256.76° Asphalt 0 ft / 0 m 0 ft / 0 m
28 210 ft / 64 m 8,433 ft / 2,570 m 299.02° 285.00° Asphalt 0 ft / 0 m 121 ft / 37 m
34 200 ft / 61 m 12,703 ft / 3,872 m 359.00° 344.98° Asphalt 0 ft / 0 m 0 ft / 0 m

CYVC

Details ICAO CYVC (YVC)
Name La Ronge (Barber Field)
Region Canada
Timezone America/Regina (UTC-6.0)
Stats Elevation 1,242 ft / 379 m (AMSL)
Location 55.150526° -105.265110°
Runways 2
Magnetic Variation 9.502° E

METAR

CYVC 272100Z 32015KT 280V340 15SM SCT080 BKN250 22/04 A2989 RMK CU3CI2 SLP131 DENSITY ALT 2400FT

Decode

TAF

TAF CYVC 271838Z 2719/2807 29015G25KT P6SM SCT080 BECMG 2800/2802 29008KT BECMG 2804/2806 VRB03KT RMK NXT FCST BY 280100Z

Decode

Destination Runways

ID Width Length Bearing (true) Bearing (mag) Surface Threshold Offset Overrun Length
10 49 ft / 15 m 2,362 ft / 720 m 116.00° 106.50° Gravel 0 ft / 0 m 0 ft / 0 m
18 151 ft / 46 m 4,997 ft / 1,523 m 189.05° 179.55° Asphalt 0 ft / 0 m 0 ft / 0 m
28 49 ft / 15 m 2,362 ft / 720 m 296.00° 286.50° Gravel 0 ft / 0 m 0 ft / 0 m
36 151 ft / 46 m 4,997 ft / 1,523 m 9.05° 359.55° Asphalt 0 ft / 0 m 0 ft / 0 m